<?xml version="1.0" encoding="UTF-8" standalone="no" ?>
<gpx xmlns="http://www.topografix.com/GPX/1/1" xmlns:xsi="http://www.w3.org/2001/XMLSchema-instance" xsi:schemaLocation="http://www.topografix.com/GPX/1/1 http://www.topografix.com/GPX/1/1/gpx.xsd" version="1.1" creator="VisuGPX - https://www.visugpx.com">
  <metadata>
    <name>Les Arcs Ski de Rando Challenge</name>
  </metadata>
  <trk>
    <name><![CDATA[Les Arcs Ski de Rando Challenge]]></name>
    <trkseg>
      <trkpt lat="45.57424" lon="6.77979">
        <ele>1715.9</ele>
        <time>2020-12-23T10:36:04Z</time>
      </trkpt>
      <trkpt lat="45.57426" lon="6.7799">
        <ele>1719</ele>
        <time>2020-12-23T10:36:09Z</time>
      </trkpt>
      <trkpt lat="45.57427" lon="6.78004">
        <ele>1719</ele>
        <time>2020-12-23T10:36:14Z</time>
      </trkpt>
      <trkpt lat="45.57428" lon="6.78019">
        <ele>1720.1</ele>
        <time>2020-12-23T10:36:21Z</time>
      </trkpt>
      <trkpt lat="45.57429" lon="6.78034">
        <ele>1721</ele>
        <time>2020-12-23T10:36:29Z</time>
      </trkpt>
      <trkpt lat="45.57429" lon="6.78049">
        <ele>1723</ele>
        <time>2020-12-23T10:36:36Z</time>
      </trkpt>
      <trkpt lat="45.57424" lon="6.78062">
        <ele>1724</ele>
        <time>2020-12-23T10:36:44Z</time>
      </trkpt>
      <trkpt lat="45.57419" lon="6.78074">
        <ele>1726</ele>
        <time>2020-12-23T10:36:52Z</time>
      </trkpt>
      <trkpt lat="45.57414" lon="6.78087">
        <ele>1726</ele>
        <time>2020-12-23T10:37:00Z</time>
      </trkpt>
      <trkpt lat="45.57417" lon="6.78101">
        <ele>1731</ele>
        <time>2020-12-23T10:37:09Z</time>
      </trkpt>
      <trkpt lat="45.57414" lon="6.78115">
        <ele>1732</ele>
        <time>2020-12-23T10:37:18Z</time>
      </trkpt>
      <trkpt lat="45.57411" lon="6.7813">
        <ele>1734</ele>
        <time>2020-12-23T10:37:27Z</time>
      </trkpt>
      <trkpt lat="45.57409" lon="6.78145">
        <ele>1738.7</ele>
        <time>2020-12-23T10:37:36Z</time>
      </trkpt>
      <trkpt lat="45.57407" lon="6.78159">
        <ele>1741</ele>
        <time>2020-12-23T10:37:45Z</time>
      </trkpt>
      <trkpt lat="45.57406" lon="6.78175">
        <ele>1744</ele>
        <time>2020-12-23T10:37:55Z</time>
      </trkpt>
      <trkpt lat="45.57405" lon="6.78189">
        <ele>1746</ele>
        <time>2020-12-23T10:38:05Z</time>
      </trkpt>
      <trkpt lat="45.57409" lon="6.782">
        <ele>1746</ele>
        <time>2020-12-23T10:38:10Z</time>
      </trkpt>
      <trkpt lat="45.57414" lon="6.7821">
        <ele>1747</ele>
        <time>2020-12-23T10:38:15Z</time>
      </trkpt>
      <trkpt lat="45.57422" lon="6.78222">
        <ele>1748</ele>
        <time>2020-12-23T10:38:22Z</time>
      </trkpt>
      <trkpt lat="45.57428" lon="6.7823">
        <ele>1748</ele>
        <time>2020-12-23T10:38:27Z</time>
      </trkpt>
      <trkpt lat="45.57435" lon="6.78238">
        <ele>1749</ele>
        <time>2020-12-23T10:38:33Z</time>
      </trkpt>
      <trkpt lat="45.57442" lon="6.78248">
        <ele>1750.1</ele>
        <time>2020-12-23T10:38:41Z</time>
      </trkpt>
      <trkpt lat="45.57452" lon="6.78256">
        <ele>1751</ele>
        <time>2020-12-23T10:38:48Z</time>
      </trkpt>
      <trkpt lat="45.57461" lon="6.78262">
        <ele>1752</ele>
        <time>2020-12-23T10:38:54Z</time>
      </trkpt>
      <trkpt lat="45.57454" lon="6.78273">
        <ele>1753</ele>
        <time>2020-12-23T10:39:05Z</time>
      </trkpt>
      <trkpt lat="45.57444" lon="6.78277">
        <ele>1755</ele>
        <time>2020-12-23T10:39:12Z</time>
      </trkpt>
      <trkpt lat="45.57434" lon="6.78283">
        <ele>1755</ele>
        <time>2020-12-23T10:39:19Z</time>
      </trkpt>
      <trkpt lat="45.57424" lon="6.78288">
        <ele>1757</ele>
        <time>2020-12-23T10:39:26Z</time>
      </trkpt>
      <trkpt lat="45.57414" lon="6.78288">
        <ele>1759</ele>
        <time>2020-12-23T10:39:33Z</time>
      </trkpt>
      <trkpt lat="45.57403" lon="6.7829">
        <ele>1760.7</ele>
        <time>2020-12-23T10:39:41Z</time>
      </trkpt>
      <trkpt lat="45.57392" lon="6.78293">
        <ele>1763</ele>
        <time>2020-12-23T10:39:48Z</time>
      </trkpt>
      <trkpt lat="45.57383" lon="6.78301">
        <ele>1763</ele>
        <time>2020-12-23T10:39:56Z</time>
      </trkpt>
      <trkpt lat="45.57388" lon="6.78314">
        <ele>1766.6</ele>
        <time>2020-12-23T10:40:06Z</time>
      </trkpt>
      <trkpt lat="45.57398" lon="6.78318">
        <ele>1769</ele>
        <time>2020-12-23T10:40:13Z</time>
      </trkpt>
      <trkpt lat="45.57407" lon="6.78323">
        <ele>1769</ele>
        <time>2020-12-23T10:40:20Z</time>
      </trkpt>
      <trkpt lat="45.57417" lon="6.78329">
        <ele>1770</ele>
        <time>2020-12-23T10:40:28Z</time>
      </trkpt>
      <trkpt lat="45.57418" lon="6.78344">
        <ele>1772</ele>
        <time>2020-12-23T10:40:36Z</time>
      </trkpt>
      <trkpt lat="45.57407" lon="6.78351">
        <ele>1774</ele>
        <time>2020-12-23T10:40:45Z</time>
      </trkpt>
      <trkpt lat="45.57393" lon="6.78348">
        <ele>1776</ele>
        <time>2020-12-23T10:40:53Z</time>
      </trkpt>
      <trkpt lat="45.57387" lon="6.78348">
        <ele>1776</ele>
        <time>2020-12-23T10:40:58Z</time>
      </trkpt>
      <trkpt lat="45.57375" lon="6.78351">
        <ele>1778</ele>
        <time>2020-12-23T10:41:07Z</time>
      </trkpt>
      <trkpt lat="45.57279" lon="6.78543">
        <ele>1802</ele>
        <time>2020-12-23T10:43:50Z</time>
      </trkpt>
      <trkpt lat="45.57282" lon="6.78557">
        <ele>1807</ele>
        <time>2020-12-23T10:43:58Z</time>
      </trkpt>
      <trkpt lat="45.57287" lon="6.78569">
        <ele>1808.6</ele>
        <time>2020-12-23T10:44:06Z</time>
      </trkpt>
      <trkpt lat="45.57292" lon="6.78582">
        <ele>1811</ele>
        <time>2020-12-23T10:44:15Z</time>
      </trkpt>
      <trkpt lat="45.57296" lon="6.78598">
        <ele>1813</ele>
        <time>2020-12-23T10:44:22Z</time>
      </trkpt>
      <trkpt lat="45.57298" lon="6.78613">
        <ele>1813.7</ele>
        <time>2020-12-23T10:44:31Z</time>
      </trkpt>
      <trkpt lat="45.57302" lon="6.78628">
        <ele>1814</ele>
        <time>2020-12-23T10:44:40Z</time>
      </trkpt>
      <trkpt lat="45.57311" lon="6.78637">
        <ele>1816</ele>
        <time>2020-12-23T10:44:46Z</time>
      </trkpt>
      <trkpt lat="45.57321" lon="6.78648">
        <ele>1818</ele>
        <time>2020-12-23T10:44:52Z</time>
      </trkpt>
      <trkpt lat="45.57327" lon="6.78662">
        <ele>1818</ele>
        <time>2020-12-23T10:44:59Z</time>
      </trkpt>
      <trkpt lat="45.57334" lon="6.78673">
        <ele>1822</ele>
        <time>2020-12-23T10:45:05Z</time>
      </trkpt>
      <trkpt lat="45.57338" lon="6.78687">
        <ele>1824</ele>
        <time>2020-12-23T10:45:16Z</time>
      </trkpt>
      <trkpt lat="45.57339" lon="6.78702">
        <ele>1826</ele>
        <time>2020-12-23T10:45:22Z</time>
      </trkpt>
      <trkpt lat="45.57341" lon="6.78722">
        <ele>1827.4</ele>
        <time>2020-12-23T10:45:31Z</time>
      </trkpt>
      <trkpt lat="45.57342" lon="6.78736">
        <ele>1830</ele>
        <time>2020-12-23T10:45:44Z</time>
      </trkpt>
      <trkpt lat="45.57346" lon="6.78751">
        <ele>1833</ele>
        <time>2020-12-23T10:45:52Z</time>
      </trkpt>
      <trkpt lat="45.57354" lon="6.78761">
        <ele>1834</ele>
        <time>2020-12-23T10:45:59Z</time>
      </trkpt>
      <trkpt lat="45.57365" lon="6.78786">
        <ele>1835</ele>
        <time>2020-12-23T10:46:10Z</time>
      </trkpt>
      <trkpt lat="45.57351" lon="6.78805">
        <ele>1837</ele>
        <time>2020-12-23T10:46:17Z</time>
      </trkpt>
      <trkpt lat="45.57341" lon="6.78812">
        <ele>1839</ele>
        <time>2020-12-23T10:46:23Z</time>
      </trkpt>
      <trkpt lat="45.57335" lon="6.78826">
        <ele>1842</ele>
        <time>2020-12-23T10:46:34Z</time>
      </trkpt>
      <trkpt lat="45.57342" lon="6.7884">
        <ele>1845.7</ele>
        <time>2020-12-23T10:46:46Z</time>
      </trkpt>
      <trkpt lat="45.57348" lon="6.78852">
        <ele>1847</ele>
        <time>2020-12-23T10:46:55Z</time>
      </trkpt>
      <trkpt lat="45.57355" lon="6.78865">
        <ele>1849</ele>
        <time>2020-12-23T10:47:04Z</time>
      </trkpt>
      <trkpt lat="45.57359" lon="6.78883">
        <ele>1852.7</ele>
        <time>2020-12-23T10:47:16Z</time>
      </trkpt>
      <trkpt lat="45.57361" lon="6.78899">
        <ele>1854</ele>
        <time>2020-12-23T10:47:26Z</time>
      </trkpt>
      <trkpt lat="45.57362" lon="6.78914">
        <ele>1856</ele>
        <time>2020-12-23T10:47:38Z</time>
      </trkpt>
      <trkpt lat="45.57357" lon="6.78928">
        <ele>1858</ele>
        <time>2020-12-23T10:47:49Z</time>
      </trkpt>
      <trkpt lat="45.57358" lon="6.78943">
        <ele>1860</ele>
        <time>2020-12-23T10:47:58Z</time>
      </trkpt>
      <trkpt lat="45.57358" lon="6.78958">
        <ele>1861</ele>
        <time>2020-12-23T10:48:09Z</time>
      </trkpt>
      <trkpt lat="45.57355" lon="6.7898">
        <ele>1864.1</ele>
        <time>2020-12-23T10:48:21Z</time>
      </trkpt>
      <trkpt lat="45.57352" lon="6.78995">
        <ele>1865</ele>
        <time>2020-12-23T10:48:28Z</time>
      </trkpt>
      <trkpt lat="45.57355" lon="6.79012">
        <ele>1867</ele>
        <time>2020-12-23T10:48:37Z</time>
      </trkpt>
      <trkpt lat="45.57359" lon="6.79025">
        <ele>1868</ele>
        <time>2020-12-23T10:48:45Z</time>
      </trkpt>
      <trkpt lat="45.57368" lon="6.79037">
        <ele>1868.7</ele>
        <time>2020-12-23T10:48:51Z</time>
      </trkpt>
      <trkpt lat="45.57369" lon="6.79052">
        <ele>1869</ele>
        <time>2020-12-23T10:48:59Z</time>
      </trkpt>
      <trkpt lat="45.57372" lon="6.79066">
        <ele>1871</ele>
        <time>2020-12-23T10:49:08Z</time>
      </trkpt>
      <trkpt lat="45.57374" lon="6.79078">
        <ele>1872</ele>
        <time>2020-12-23T10:49:15Z</time>
      </trkpt>
      <trkpt lat="45.57377" lon="6.79093">
        <ele>1874</ele>
        <time>2020-12-23T10:49:24Z</time>
      </trkpt>
      <trkpt lat="45.57385" lon="6.79104">
        <ele>1876</ele>
        <time>2020-12-23T10:49:32Z</time>
      </trkpt>
      <trkpt lat="45.5739" lon="6.79118">
        <ele>1876</ele>
        <time>2020-12-23T10:49:40Z</time>
      </trkpt>
      <trkpt lat="45.57397" lon="6.79131">
        <ele>1877</ele>
        <time>2020-12-23T10:49:48Z</time>
      </trkpt>
      <trkpt lat="45.57403" lon="6.79144">
        <ele>1878</ele>
        <time>2020-12-23T10:49:56Z</time>
      </trkpt>
      <trkpt lat="45.5741" lon="6.79154">
        <ele>1879</ele>
        <time>2020-12-23T10:50:02Z</time>
      </trkpt>
      <trkpt lat="45.57418" lon="6.79163">
        <ele>1879</ele>
        <time>2020-12-23T10:50:09Z</time>
      </trkpt>
      <trkpt lat="45.57246" lon="6.79315">
        <ele>1948</ele>
        <time>2020-12-23T10:55:26Z</time>
      </trkpt>
      <trkpt lat="45.57236" lon="6.79313">
        <ele>1949</ele>
        <time>2020-12-23T10:55:34Z</time>
      </trkpt>
      <trkpt lat="45.57225" lon="6.79311">
        <ele>1950</ele>
        <time>2020-12-23T10:55:42Z</time>
      </trkpt>
      <trkpt lat="45.57191" lon="6.79306">
        <ele>1952</ele>
        <time>2020-12-23T10:56:07Z</time>
      </trkpt>
      <trkpt lat="45.5718" lon="6.79303">
        <ele>1955</ele>
        <time>2020-12-23T10:56:13Z</time>
      </trkpt>
      <trkpt lat="45.57169" lon="6.79305">
        <ele>1956</ele>
        <time>2020-12-23T10:56:22Z</time>
      </trkpt>
      <trkpt lat="45.57159" lon="6.79306">
        <ele>1956</ele>
        <time>2020-12-23T10:56:28Z</time>
      </trkpt>
      <trkpt lat="45.57149" lon="6.79304">
        <ele>1957</ele>
        <time>2020-12-23T10:56:36Z</time>
      </trkpt>
      <trkpt lat="45.57139" lon="6.79306">
        <ele>1959</ele>
        <time>2020-12-23T10:56:43Z</time>
      </trkpt>
      <trkpt lat="45.57127" lon="6.79312">
        <ele>1962</ele>
        <time>2020-12-23T10:56:54Z</time>
      </trkpt>
      <trkpt lat="45.57117" lon="6.79315">
        <ele>1962.6</ele>
        <time>2020-12-23T10:57:01Z</time>
      </trkpt>
      <trkpt lat="45.57107" lon="6.79318">
        <ele>1963</ele>
        <time>2020-12-23T10:57:09Z</time>
      </trkpt>
      <trkpt lat="45.57327" lon="6.79505">
        <ele>2011</ele>
        <time>2020-12-23T11:01:02Z</time>
      </trkpt>
      <trkpt lat="45.57335" lon="6.79515">
        <ele>2013</ele>
        <time>2020-12-23T11:01:09Z</time>
      </trkpt>
      <trkpt lat="45.57343" lon="6.79528">
        <ele>2013</ele>
        <time>2020-12-23T11:01:17Z</time>
      </trkpt>
      <trkpt lat="45.57349" lon="6.79539">
        <ele>2014</ele>
        <time>2020-12-23T11:01:22Z</time>
      </trkpt>
      <trkpt lat="45.57371" lon="6.79544">
        <ele>2015</ele>
        <time>2020-12-23T11:01:33Z</time>
      </trkpt>
      <trkpt lat="45.57382" lon="6.79545">
        <ele>2015</ele>
        <time>2020-12-23T11:01:39Z</time>
      </trkpt>
      <trkpt lat="45.57392" lon="6.79547">
        <ele>2016</ele>
        <time>2020-12-23T11:01:45Z</time>
      </trkpt>
      <trkpt lat="45.57404" lon="6.79553">
        <ele>2017</ele>
        <time>2020-12-23T11:01:53Z</time>
      </trkpt>
      <trkpt lat="45.57424" lon="6.79548">
        <ele>2019</ele>
        <time>2020-12-23T11:02:05Z</time>
      </trkpt>
      <trkpt lat="45.57433" lon="6.79549">
        <ele>2020</ele>
        <time>2020-12-23T11:02:15Z</time>
      </trkpt>
      <trkpt lat="45.57442" lon="6.79555">
        <ele>2022</ele>
        <time>2020-12-23T11:02:23Z</time>
      </trkpt>
      <trkpt lat="45.57454" lon="6.79555">
        <ele>2023</ele>
        <time>2020-12-23T11:02:30Z</time>
      </trkpt>
      <trkpt lat="45.57464" lon="6.79559">
        <ele>2024</ele>
        <time>2020-12-23T11:02:35Z</time>
      </trkpt>
      <trkpt lat="45.57475" lon="6.79563">
        <ele>2025</ele>
        <time>2020-12-23T11:02:45Z</time>
      </trkpt>
      <trkpt lat="45.57485" lon="6.7957">
        <ele>2027</ele>
        <time>2020-12-23T11:02:52Z</time>
      </trkpt>
      <trkpt lat="45.57495" lon="6.79576">
        <ele>2028</ele>
        <time>2020-12-23T11:02:57Z</time>
      </trkpt>
      <trkpt lat="45.57503" lon="6.79586">
        <ele>2028</ele>
        <time>2020-12-23T11:03:04Z</time>
      </trkpt>
      <trkpt lat="45.5751" lon="6.79596">
        <ele>2029.1</ele>
        <time>2020-12-23T11:03:11Z</time>
      </trkpt>
      <trkpt lat="45.57516" lon="6.79606">
        <ele>2032</ele>
        <time>2020-12-23T11:03:18Z</time>
      </trkpt>
      <trkpt lat="45.57525" lon="6.79615">
        <ele>2032</ele>
        <time>2020-12-23T11:03:24Z</time>
      </trkpt>
      <trkpt lat="45.57532" lon="6.79626">
        <ele>2032</ele>
        <time>2020-12-23T11:03:30Z</time>
      </trkpt>
      <trkpt lat="45.57541" lon="6.79636">
        <ele>2033</ele>
        <time>2020-12-23T11:03:37Z</time>
      </trkpt>
      <trkpt lat="45.5755" lon="6.79643">
        <ele>2033</ele>
        <time>2020-12-23T11:03:44Z</time>
      </trkpt>
      <trkpt lat="45.5756" lon="6.7965">
        <ele>2034.1</ele>
        <time>2020-12-23T11:03:51Z</time>
      </trkpt>
      <trkpt lat="45.5757" lon="6.79657">
        <ele>2035</ele>
        <time>2020-12-23T11:03:58Z</time>
      </trkpt>
      <trkpt lat="45.5758" lon="6.79663">
        <ele>2035</ele>
        <time>2020-12-23T11:04:04Z</time>
      </trkpt>
      <trkpt lat="45.57589" lon="6.79668">
        <ele>2035</ele>
        <time>2020-12-23T11:04:10Z</time>
      </trkpt>
      <trkpt lat="45.576" lon="6.79672">
        <ele>2036</ele>
        <time>2020-12-23T11:04:18Z</time>
      </trkpt>
      <trkpt lat="45.57612" lon="6.79678">
        <ele>2037</ele>
        <time>2020-12-23T11:04:26Z</time>
      </trkpt>
      <trkpt lat="45.57623" lon="6.79681">
        <ele>2038</ele>
        <time>2020-12-23T11:04:32Z</time>
      </trkpt>
      <trkpt lat="45.57634" lon="6.79688">
        <ele>2038</ele>
        <time>2020-12-23T11:04:39Z</time>
      </trkpt>
      <trkpt lat="45.57643" lon="6.79693">
        <ele>2041</ele>
        <time>2020-12-23T11:04:47Z</time>
      </trkpt>
      <trkpt lat="45.57651" lon="6.79703">
        <ele>2041</ele>
        <time>2020-12-23T11:04:52Z</time>
      </trkpt>
      <trkpt lat="45.57662" lon="6.79708">
        <ele>2041</ele>
        <time>2020-12-23T11:04:58Z</time>
      </trkpt>
      <trkpt lat="45.57672" lon="6.79714">
        <ele>2042</ele>
        <time>2020-12-23T11:05:06Z</time>
      </trkpt>
      <trkpt lat="45.57684" lon="6.7972">
        <ele>2044</ele>
        <time>2020-12-23T11:05:15Z</time>
      </trkpt>
      <trkpt lat="45.57694" lon="6.79726">
        <ele>2045.7</ele>
        <time>2020-12-23T11:05:21Z</time>
      </trkpt>
      <trkpt lat="45.57703" lon="6.79732">
        <ele>2046</ele>
        <time>2020-12-23T11:05:28Z</time>
      </trkpt>
      <trkpt lat="45.57714" lon="6.79738">
        <ele>2046</ele>
        <time>2020-12-23T11:05:35Z</time>
      </trkpt>
      <trkpt lat="45.57724" lon="6.79742">
        <ele>2048</ele>
        <time>2020-12-23T11:05:43Z</time>
      </trkpt>
      <trkpt lat="45.57736" lon="6.79749">
        <ele>2050</ele>
        <time>2020-12-23T11:05:54Z</time>
      </trkpt>
      <trkpt lat="45.57744" lon="6.79759">
        <ele>2052</ele>
        <time>2020-12-23T11:06:03Z</time>
      </trkpt>
      <trkpt lat="45.57752" lon="6.79768">
        <ele>2054</ele>
        <time>2020-12-23T11:06:10Z</time>
      </trkpt>
      <trkpt lat="45.57761" lon="6.79776">
        <ele>2056</ele>
        <time>2020-12-23T11:06:18Z</time>
      </trkpt>
      <trkpt lat="45.57774" lon="6.79783">
        <ele>2058</ele>
        <time>2020-12-23T11:06:24Z</time>
      </trkpt>
      <trkpt lat="45.57777" lon="6.79798">
        <ele>2058.6</ele>
        <time>2020-12-23T11:06:31Z</time>
      </trkpt>
      <trkpt lat="45.57784" lon="6.79809">
        <ele>2059</ele>
        <time>2020-12-23T11:06:39Z</time>
      </trkpt>
      <trkpt lat="45.57792" lon="6.79822">
        <ele>2060</ele>
        <time>2020-12-23T11:06:47Z</time>
      </trkpt>
      <trkpt lat="45.57797" lon="6.79838">
        <ele>2061</ele>
        <time>2020-12-23T11:06:57Z</time>
      </trkpt>
      <trkpt lat="45.57812" lon="6.79858">
        <ele>2062</ele>
        <time>2020-12-23T11:07:10Z</time>
      </trkpt>
      <trkpt lat="45.57819" lon="6.79868">
        <ele>2065</ele>
        <time>2020-12-23T11:07:19Z</time>
      </trkpt>
      <trkpt lat="45.57829" lon="6.79875">
        <ele>2067</ele>
        <time>2020-12-23T11:07:25Z</time>
      </trkpt>
      <trkpt lat="45.57871" lon="6.79928">
        <ele>2072</ele>
        <time>2020-12-23T11:08:00Z</time>
      </trkpt>
      <trkpt lat="45.57875" lon="6.79942">
        <ele>2074</ele>
        <time>2020-12-23T11:08:09Z</time>
      </trkpt>
      <trkpt lat="45.57881" lon="6.79955">
        <ele>2074</ele>
        <time>2020-12-23T11:08:18Z</time>
      </trkpt>
      <trkpt lat="45.57886" lon="6.7997">
        <ele>2076.7</ele>
        <time>2020-12-23T11:08:26Z</time>
      </trkpt>
      <trkpt lat="45.57889" lon="6.79986">
        <ele>2078</ele>
        <time>2020-12-23T11:08:34Z</time>
      </trkpt>
      <trkpt lat="45.57893" lon="6.79999">
        <ele>2080.6</ele>
        <time>2020-12-23T11:08:41Z</time>
      </trkpt>
      <trkpt lat="45.57897" lon="6.80018">
        <ele>2083.1</ele>
        <time>2020-12-23T11:08:51Z</time>
      </trkpt>
      <trkpt lat="45.57888" lon="6.80026">
        <ele>2086</ele>
        <time>2020-12-23T11:09:00Z</time>
      </trkpt>
      <trkpt lat="45.57876" lon="6.80022">
        <ele>2087.6</ele>
        <time>2020-12-23T11:09:06Z</time>
      </trkpt>
      <trkpt lat="45.57866" lon="6.80017">
        <ele>2088</ele>
        <time>2020-12-23T11:09:13Z</time>
      </trkpt>
      <trkpt lat="45.57856" lon="6.80009">
        <ele>2089</ele>
        <time>2020-12-23T11:09:45Z</time>
      </trkpt>
      <trkpt lat="45.57846" lon="6.80001">
        <ele>2089</ele>
        <time>2020-12-23T11:09:53Z</time>
      </trkpt>
      <trkpt lat="45.57836" lon="6.79996">
        <ele>2089</ele>
        <time>2020-12-23T11:09:59Z</time>
      </trkpt>
      <trkpt lat="45.57825" lon="6.79992">
        <ele>2090</ele>
        <time>2020-12-23T11:10:05Z</time>
      </trkpt>
      <trkpt lat="45.57817" lon="6.79982">
        <ele>2090</ele>
        <time>2020-12-23T11:10:11Z</time>
      </trkpt>
      <trkpt lat="45.57806" lon="6.79961">
        <ele>2090</ele>
        <time>2020-12-23T11:10:21Z</time>
      </trkpt>
      <trkpt lat="45.57799" lon="6.79951">
        <ele>2090</ele>
        <time>2020-12-23T11:10:28Z</time>
      </trkpt>
      <trkpt lat="45.57787" lon="6.79956">
        <ele>2090</ele>
        <time>2020-12-23T11:10:39Z</time>
      </trkpt>
      <trkpt lat="45.57777" lon="6.79956">
        <ele>2091</ele>
        <time>2020-12-23T11:10:46Z</time>
      </trkpt>
      <trkpt lat="45.57769" lon="6.79972">
        <ele>2091</ele>
        <time>2020-12-23T11:10:54Z</time>
      </trkpt>
      <trkpt lat="45.57762" lon="6.79981">
        <ele>2092</ele>
        <time>2020-12-23T11:11:15Z</time>
      </trkpt>
      <trkpt lat="45.57755" lon="6.79992">
        <ele>2092</ele>
        <time>2020-12-23T11:11:23Z</time>
      </trkpt>
      <trkpt lat="45.57744" lon="6.80003">
        <ele>2093.7</ele>
        <time>2020-12-23T11:12:21Z</time>
      </trkpt>
      <trkpt lat="45.57745" lon="6.80019">
        <ele>2094</ele>
        <time>2020-12-23T11:12:30Z</time>
      </trkpt>
      <trkpt lat="45.57738" lon="6.80031">
        <ele>2096</ele>
        <time>2020-12-23T11:12:37Z</time>
      </trkpt>
      <trkpt lat="45.57718" lon="6.80053">
        <ele>2099</ele>
        <time>2020-12-23T11:12:52Z</time>
      </trkpt>
      <trkpt lat="45.57701" lon="6.80058">
        <ele>2100</ele>
        <time>2020-12-23T11:13:00Z</time>
      </trkpt>
      <trkpt lat="45.5769" lon="6.80064">
        <ele>2102</ele>
        <time>2020-12-23T11:13:07Z</time>
      </trkpt>
      <trkpt lat="45.5768" lon="6.8007">
        <ele>2103</ele>
        <time>2020-12-23T11:13:14Z</time>
      </trkpt>
      <trkpt lat="45.57667" lon="6.80079">
        <ele>2107</ele>
        <time>2020-12-23T11:13:28Z</time>
      </trkpt>
      <trkpt lat="45.57657" lon="6.80077">
        <ele>2107</ele>
        <time>2020-12-23T11:13:33Z</time>
      </trkpt>
      <trkpt lat="45.57646" lon="6.80079">
        <ele>2110</ele>
        <time>2020-12-23T11:13:38Z</time>
      </trkpt>
      <trkpt lat="45.57635" lon="6.80079">
        <ele>2110</ele>
        <time>2020-12-23T11:13:45Z</time>
      </trkpt>
      <trkpt lat="45.57624" lon="6.80082">
        <ele>2111</ele>
        <time>2020-12-23T11:13:56Z</time>
      </trkpt>
      <trkpt lat="45.57613" lon="6.80082">
        <ele>2115</ele>
        <time>2020-12-23T11:14:03Z</time>
      </trkpt>
      <trkpt lat="45.57601" lon="6.80082">
        <ele>2115</ele>
        <time>2020-12-23T11:14:10Z</time>
      </trkpt>
      <trkpt lat="45.5759" lon="6.80082">
        <ele>2118</ele>
        <time>2020-12-23T11:14:22Z</time>
      </trkpt>
      <trkpt lat="45.5758" lon="6.8009">
        <ele>2119</ele>
        <time>2020-12-23T11:14:29Z</time>
      </trkpt>
      <trkpt lat="45.57572" lon="6.80099">
        <ele>2121.1</ele>
        <time>2020-12-23T11:14:36Z</time>
      </trkpt>
      <trkpt lat="45.57564" lon="6.80109">
        <ele>2122</ele>
        <time>2020-12-23T11:14:45Z</time>
      </trkpt>
      <trkpt lat="45.57559" lon="6.80123">
        <ele>2125</ele>
        <time>2020-12-23T11:14:54Z</time>
      </trkpt>
      <trkpt lat="45.57546" lon="6.80126">
        <ele>2128.7</ele>
        <time>2020-12-23T11:15:06Z</time>
      </trkpt>
      <trkpt lat="45.57534" lon="6.80137">
        <ele>2129</ele>
        <time>2020-12-23T11:15:17Z</time>
      </trkpt>
      <trkpt lat="45.57522" lon="6.8014">
        <ele>2131</ele>
        <time>2020-12-23T11:15:24Z</time>
      </trkpt>
      <trkpt lat="45.57502" lon="6.80155">
        <ele>2132</ele>
        <time>2020-12-23T11:15:35Z</time>
      </trkpt>
      <trkpt lat="45.57491" lon="6.80158">
        <ele>2133</ele>
        <time>2020-12-23T11:15:42Z</time>
      </trkpt>
      <trkpt lat="45.5748" lon="6.80157">
        <ele>2133.7</ele>
        <time>2020-12-23T11:15:51Z</time>
      </trkpt>
      <trkpt lat="45.5747" lon="6.80162">
        <ele>2134</ele>
        <time>2020-12-23T11:15:57Z</time>
      </trkpt>
      <trkpt lat="45.57459" lon="6.80163">
        <ele>2137</ele>
        <time>2020-12-23T11:16:02Z</time>
      </trkpt>
      <trkpt lat="45.57448" lon="6.80164">
        <ele>2138</ele>
        <time>2020-12-23T11:16:08Z</time>
      </trkpt>
      <trkpt lat="45.57437" lon="6.80165">
        <ele>2139</ele>
        <time>2020-12-23T11:16:14Z</time>
      </trkpt>
      <trkpt lat="45.57426" lon="6.80169">
        <ele>2139</ele>
        <time>2020-12-23T11:16:20Z</time>
      </trkpt>
      <trkpt lat="45.57415" lon="6.8017">
        <ele>2139</ele>
        <time>2020-12-23T11:16:25Z</time>
      </trkpt>
      <trkpt lat="45.57403" lon="6.80168">
        <ele>2139</ele>
        <time>2020-12-23T11:16:30Z</time>
      </trkpt>
      <trkpt lat="45.57383" lon="6.80162">
        <ele>2138</ele>
        <time>2020-12-23T11:16:38Z</time>
      </trkpt>
      <trkpt lat="45.57373" lon="6.8016">
        <ele>2137</ele>
        <time>2020-12-23T11:16:43Z</time>
      </trkpt>
      <trkpt lat="45.57363" lon="6.80159">
        <ele>2137</ele>
        <time>2020-12-23T11:16:49Z</time>
      </trkpt>
      <trkpt lat="45.57352" lon="6.80155">
        <ele>2138</ele>
        <time>2020-12-23T11:16:56Z</time>
      </trkpt>
      <trkpt lat="45.57344" lon="6.80163">
        <ele>2142</ele>
        <time>2020-12-23T11:17:08Z</time>
      </trkpt>
      <trkpt lat="45.57334" lon="6.8016">
        <ele>2145</ele>
        <time>2020-12-23T11:17:17Z</time>
      </trkpt>
      <trkpt lat="45.57323" lon="6.80165">
        <ele>2149</ele>
        <time>2020-12-23T11:17:34Z</time>
      </trkpt>
      <trkpt lat="45.57312" lon="6.80173">
        <ele>2154</ele>
        <time>2020-12-23T11:17:54Z</time>
      </trkpt>
      <trkpt lat="45.57302" lon="6.80174">
        <ele>2157</ele>
        <time>2020-12-23T11:18:04Z</time>
      </trkpt>
      <trkpt lat="45.5729" lon="6.80175">
        <ele>2159</ele>
        <time>2020-12-23T11:18:13Z</time>
      </trkpt>
      <trkpt lat="45.5729" lon="6.8019">
        <ele>2161</ele>
        <time>2020-12-23T11:18:24Z</time>
      </trkpt>
      <trkpt lat="45.57279" lon="6.80212">
        <ele>2169</ele>
        <time>2020-12-23T11:18:49Z</time>
      </trkpt>
      <trkpt lat="45.57268" lon="6.80217">
        <ele>2173</ele>
        <time>2020-12-23T11:19:00Z</time>
      </trkpt>
      <trkpt lat="45.57256" lon="6.80213">
        <ele>2174</ele>
        <time>2020-12-23T11:19:05Z</time>
      </trkpt>
      <trkpt lat="45.57244" lon="6.80215">
        <ele>2177</ele>
        <time>2020-12-23T11:19:13Z</time>
      </trkpt>
      <trkpt lat="45.57233" lon="6.80218">
        <ele>2179</ele>
        <time>2020-12-23T11:19:23Z</time>
      </trkpt>
      <trkpt lat="45.57227" lon="6.80232">
        <ele>2186</ele>
        <time>2020-12-23T11:19:42Z</time>
      </trkpt>
      <trkpt lat="45.57214" lon="6.80237">
        <ele>2189</ele>
        <time>2020-12-23T11:19:55Z</time>
      </trkpt>
      <trkpt lat="45.57204" lon="6.80243">
        <ele>2193</ele>
        <time>2020-12-23T11:20:08Z</time>
      </trkpt>
      <trkpt lat="45.57193" lon="6.80242">
        <ele>2195</ele>
        <time>2020-12-23T11:20:15Z</time>
      </trkpt>
      <trkpt lat="45.57194" lon="6.80262">
        <ele>2200</ele>
        <time>2020-12-23T11:20:29Z</time>
      </trkpt>
      <trkpt lat="45.57183" lon="6.80262">
        <ele>2200</ele>
        <time>2020-12-23T11:20:34Z</time>
      </trkpt>
      <trkpt lat="45.57174" lon="6.80269">
        <ele>2200</ele>
        <time>2020-12-23T11:20:40Z</time>
      </trkpt>
      <trkpt lat="45.57165" lon="6.80283">
        <ele>2205</ele>
        <time>2020-12-23T11:20:53Z</time>
      </trkpt>
      <trkpt lat="45.57158" lon="6.80293">
        <ele>2209</ele>
        <time>2020-12-23T11:21:05Z</time>
      </trkpt>
      <trkpt lat="45.57147" lon="6.80298">
        <ele>2214</ele>
        <time>2020-12-23T11:21:18Z</time>
      </trkpt>
      <trkpt lat="45.57137" lon="6.80302">
        <ele>2219</ele>
        <time>2020-12-23T11:21:33Z</time>
      </trkpt>
      <trkpt lat="45.57128" lon="6.80308">
        <ele>2222</ele>
        <time>2020-12-23T11:21:43Z</time>
      </trkpt>
      <trkpt lat="45.57122" lon="6.8032">
        <ele>2226</ele>
        <time>2020-12-23T11:21:59Z</time>
      </trkpt>
      <trkpt lat="45.5711" lon="6.80327">
        <ele>2229</ele>
        <time>2020-12-23T11:22:08Z</time>
      </trkpt>
      <trkpt lat="45.57092" lon="6.8033">
        <ele>2233</ele>
        <time>2020-12-23T11:22:20Z</time>
      </trkpt>
      <trkpt lat="45.57087" lon="6.80343">
        <ele>2237</ele>
        <time>2020-12-23T11:22:33Z</time>
      </trkpt>
      <trkpt lat="45.5708" lon="6.80353">
        <ele>2241</ele>
        <time>2020-12-23T11:22:50Z</time>
      </trkpt>
      <trkpt lat="45.57072" lon="6.80363">
        <ele>2247</ele>
        <time>2020-12-23T11:23:02Z</time>
      </trkpt>
      <trkpt lat="45.57064" lon="6.80374">
        <ele>2250</ele>
        <time>2020-12-23T11:23:14Z</time>
      </trkpt>
      <trkpt lat="45.57055" lon="6.80381">
        <ele>2252</ele>
        <time>2020-12-23T11:23:23Z</time>
      </trkpt>
      <trkpt lat="45.57047" lon="6.80391">
        <ele>2252</ele>
        <time>2020-12-23T11:23:30Z</time>
      </trkpt>
      <trkpt lat="45.57039" lon="6.804">
        <ele>2252</ele>
        <time>2020-12-23T11:23:36Z</time>
      </trkpt>
      <trkpt lat="45.57029" lon="6.80408">
        <ele>2254</ele>
        <time>2020-12-23T11:23:42Z</time>
      </trkpt>
      <trkpt lat="45.5702" lon="6.80416">
        <ele>2255</ele>
        <time>2020-12-23T11:23:49Z</time>
      </trkpt>
      <trkpt lat="45.5701" lon="6.80421">
        <ele>2255</ele>
        <time>2020-12-23T11:23:58Z</time>
      </trkpt>
      <trkpt lat="45.57002" lon="6.80429">
        <ele>2259</ele>
        <time>2020-12-23T11:24:07Z</time>
      </trkpt>
      <trkpt lat="45.56996" lon="6.80441">
        <ele>2262</ele>
        <time>2020-12-23T11:24:18Z</time>
      </trkpt>
      <trkpt lat="45.56986" lon="6.80449">
        <ele>2263.6</ele>
        <time>2020-12-23T11:24:26Z</time>
      </trkpt>
      <trkpt lat="45.56976" lon="6.80452">
        <ele>2265</ele>
        <time>2020-12-23T11:24:32Z</time>
      </trkpt>
      <trkpt lat="45.56966" lon="6.80459">
        <ele>2265</ele>
        <time>2020-12-23T11:24:38Z</time>
      </trkpt>
      <trkpt lat="45.56956" lon="6.80466">
        <ele>2266</ele>
        <time>2020-12-23T11:24:44Z</time>
      </trkpt>
      <trkpt lat="45.56948" lon="6.80474">
        <ele>2266.6</ele>
        <time>2020-12-23T11:24:51Z</time>
      </trkpt>
      <trkpt lat="45.56939" lon="6.80483">
        <ele>2267</ele>
        <time>2020-12-23T11:24:59Z</time>
      </trkpt>
      <trkpt lat="45.56932" lon="6.80494">
        <ele>2272</ele>
        <time>2020-12-23T11:25:07Z</time>
      </trkpt>
      <trkpt lat="45.56923" lon="6.80503">
        <ele>2273</ele>
        <time>2020-12-23T11:25:17Z</time>
      </trkpt>
      <trkpt lat="45.56912" lon="6.80507">
        <ele>2277</ele>
        <time>2020-12-23T11:25:27Z</time>
      </trkpt>
      <trkpt lat="45.56902" lon="6.80504">
        <ele>2277</ele>
        <time>2020-12-23T11:25:33Z</time>
      </trkpt>
      <trkpt lat="45.56892" lon="6.80498">
        <ele>2278</ele>
        <time>2020-12-23T11:25:39Z</time>
      </trkpt>
      <trkpt lat="45.56882" lon="6.80494">
        <ele>2279</ele>
        <time>2020-12-23T11:25:45Z</time>
      </trkpt>
      <trkpt lat="45.56872" lon="6.80491">
        <ele>2281</ele>
        <time>2020-12-23T11:25:52Z</time>
      </trkpt>
      <trkpt lat="45.56862" lon="6.80488">
        <ele>2281</ele>
        <time>2020-12-23T11:25:58Z</time>
      </trkpt>
      <trkpt lat="45.56851" lon="6.80484">
        <ele>2281</ele>
        <time>2020-12-23T11:26:07Z</time>
      </trkpt>
      <trkpt lat="45.56862" lon="6.80493">
        <ele>2283</ele>
        <time>2020-12-23T11:26:28Z</time>
      </trkpt>
      <trkpt lat="45.5685" lon="6.80489">
        <ele>2283</ele>
        <time>2020-12-23T11:26:41Z</time>
      </trkpt>
      <trkpt lat="45.56839" lon="6.80483">
        <ele>2283</ele>
        <time>2020-12-23T11:26:46Z</time>
      </trkpt>
      <trkpt lat="45.56828" lon="6.80475">
        <ele>2284</ele>
        <time>2020-12-23T11:26:52Z</time>
      </trkpt>
      <trkpt lat="45.56817" lon="6.80471">
        <ele>2284</ele>
        <time>2020-12-23T11:26:59Z</time>
      </trkpt>
      <trkpt lat="45.56795" lon="6.8046">
        <ele>2285</ele>
        <time>2020-12-23T11:27:07Z</time>
      </trkpt>
    </trkseg>
  </trk>
</gpx>